Time;durP1;ratioP1;P1;durP2;ratioP2;P2;SDS_P1;SDS_P2;PMS_P1;PMS_P2;Temp;Humidity;BMP_temperature;BMP_pressure;BME280_temperature;BME280_humidity;BME280_pressure;Samples;Min_cycle;Max_cycle;Signal;HPM_P1;HPM_P2
2023/08/10 00:01:41;;;;;;;;;;;;;;;18.47;45.58;100847.84;5097077;28;1897;-51
2023/08/10 00:04:06;;;;;;;;;;;;;;;17.72;46.73;100851.44;5096696;28;1030;-51
2023/08/10 00:06:32;;;;;;;;;;;;;;;17.54;46.09;100846.53;5096970;28;1039;-53
2023/08/10 00:08:57;;;;;;;;;;;;;;;17.51;45.78;100852.59;5096127;28;1161;-49
2023/08/10 00:11:23;;;;;;;;;;;;;;;17.42;45.12;100847.66;5096861;28;1073;-50
2023/08/10 00:13:48;;;;;;;;;;;;;;;18.33;46.33;100844.06;5096606;28;1081;-51
2023/08/10 00:16:14;;;;;;;;;;;;;;;17.76;46.49;100843.44;5096723;28;998;-51
2023/08/10 00:18:40;;;;;;;;;;;;;;;17.55;45.99;100837.19;5097138;28;1172;-49
2023/08/10 00:21:05;;;;;;;;;;;;;;;17.48;45.59;100840.22;5096238;28;1963;-51
2023/08/10 00:23:31;;;;;;;;;;;;;;;17.44;45.29;100844.63;5096673;28;1050;-49
2023/08/10 00:25:57;;;;;;;;;;;;;;;17.31;44.81;100832.28;5096826;28;1006;-50
2023/08/10 00:28:23;;;;;;;;;;;;;;;17.38;44.41;100829.25;5090683;28;2484;-51
2023/08/10 00:30:48;;;;;;;;;;;;;;;17.77;45.38;100825.84;5096359;28;998;-49
2023/08/10 00:33:14;;;;;;;;;;;;;;;17.69;46.27;100823.69;5096041;28;1094;-52
2023/08/10 00:35:39;;;;;;;;;;;;;;;17.40;45.95;100822.38;5096589;28;1042;-50
2023/08/10 00:38:05;;;;;;;;;;;;;;;17.40;45.41;100822.38;5096680;28;1125;-52
2023/08/10 00:40:31;;;;;;;;;;;;;;;17.26;45.27;100824.88;5096112;28;1965;-51
2023/08/10 00:43:00;;;;;;;;;;;;;;;18.23;45.79;100827.59;5096517;28;984;-52
2023/08/10 00:45:27;;;;;;;;;;;;;;;17.63;46.37;100820.13;5077462;28;1035;-49
2023/08/10 00:47:53;;;;;;;;;;;;;;;17.43;45.88;100827.31;5096494;28;1027;-51
2023/08/10 00:50:18;;;;;;;;;;;;;;;17.48;45.30;100829.22;5078199;28;1213;-52
2023/08/10 00:52:44;;;;;;;;;;;;;;;17.41;45.09;100829.50;5078304;28;1010;-51
2023/08/10 00:55:09;;;;;;;;;;;;;;;18.05;45.71;100829.09;5078315;28;1202;-49
2023/08/10 00:57:35;;;;;;;;;;;;;;;17.87;46.56;100825.00;5071687;28;1808;-52
2023/08/10 01:00:00;;;;;;;;;;;;;;;17.60;46.05;100826.19;5075931;28;1980;-50
2023/08/10 01:02:26;;;;;;;;;;;;;;;17.44;45.90;100828.94;5078388;28;1186;-51
2023/08/10 01:04:52;;;;;;;;;;;;;;;17.45;45.19;100816.84;5080798;28;1161;-49
2023/08/10 01:07:20;;;;;;;;;;;;;;;17.35;45.03;100827.88;5103034;28;1165;-50
2023/08/10 01:09:54;;;;;;;;;;;;;;;17.29;44.56;100820.72;5084346;28;1087;-51
2023/08/10 01:12:25;;;;;;;;;;;;;;;17.29;44.59;100815.22;5084445;28;1336;-50
2023/08/10 01:14:53;;;;;;;;;;;;;;;17.72;44.90;100806.63;5071419;28;969;-51
2023/08/10 01:17:29;;;;;;;;;;;;;;;17.88;45.98;100801.88;5103522;28;1066;-50
2023/08/10 01:19:55;;;;;;;;;;;;;;;17.52;45.88;100797.31;5084212;28;1913;-51
2023/08/10 01:22:39;;;;;;;;;;;;;;;17.41;45.45;100796.53;5083750;28;1011;-53
2023/08/10 01:25:08;;;;;;;;;;;;;;;17.40;45.05;100794.91;5102771;28;1002;-51
2023/08/10 01:27:34;;;;;;;;;;;;;;;17.29;44.85;100801.50;5102770;28;1855;-49
2023/08/10 01:30:00;;;;;;;;;;;;;;;17.21;44.70;100791.91;5084524;28;1117;-51
2023/08/10 01:32:27;;;;;;;;;;;;;;;17.32;44.15;100797.38;5084782;28;1102;-51
2023/08/10 01:34:53;;;;;;;;;;;;;;;17.19;44.16;100787.78;5084543;28;969;-50
2023/08/10 01:37:18;;;;;;;;;;;;;;;18.02;45.55;100789.19;5084574;28;1216;-52
2023/08/10 01:39:44;;;;;;;;;;;;;;;17.53;45.87;100789.88;5084789;28;1913;-50
2023/08/10 01:42:10;;;;;;;;;;;;;;;17.42;45.52;100787.19;5102843;28;1114;-52
2023/08/10 01:44:35;;;;;;;;;;;;;;;17.38;45.01;100790.78;5084738;28;1280;-51
2023/08/10 01:47:01;;;;;;;;;;;;;;;17.30;44.76;100789.41;5102570;28;1185;-52
2023/08/10 01:49:27;;;;;;;;;;;;;;;17.53;45.41;100793.47;5084885;28;1237;-51
2023/08/10 01:51:52;;;;;;;;;;;;;;;17.67;45.80;100787.38;5084220;28;1126;-51
2023/08/10 01:54:18;;;;;;;;;;;;;;;17.49;45.66;100789.66;5085283;28;1039;-52
2023/08/10 01:56:44;;;;;;;;;;;;;;;17.33;45.34;100783.34;5084770;28;1226;-51
2023/08/10 01:59:09;;;;;;;;;;;;;;;18.37;45.84;100773.56;5084127;28;1126;-51
2023/08/10 02:01:35;;;;;;;;;;;;;;;17.60;46.97;100766.50;5084195;28;1965;-50
2023/08/10 02:04:01;;;;;;;;;;;;;;;17.50;46.13;100771.22;5084995;28;1134;-49
2023/08/10 02:06:27;;;;;;;;;;;;;;;17.44;45.32;100784.97;5084336;28;1130;-46
2023/08/10 02:08:53;;;;;;;;;;;;;;;17.25;45.28;100787.50;5084397;28;2213;-50
2023/08/10 02:11:18;;;;;;;;;;;;;;;17.26;44.74;100788.31;5102072;28;1138;-48
2023/08/10 02:13:44;;;;;;;;;;;;;;;18.13;45.98;100790.78;5084108;28;1129;-50
2023/08/10 02:16:11;;;;;;;;;;;;;;;17.55;46.24;100801.44;5082022;28;1114;-51
2023/08/10 02:18:37;;;;;;;;;;;;;;;17.48;45.79;100800.91;5099681;28;1038;-50
2023/08/10 02:21:02;;;;;;;;;;;;;;;17.34;45.22;100801.50;5099020;28;1894;-50
2023/08/10 02:23:29;;;;;;;;;;;;;;;18.09;45.74;100806.22;5098887;28;916;-51
2023/08/10 02:25:54;;;;;;;;;;;;;;;17.93;46.48;100799.94;5081362;28;1476;-53
2023/08/10 02:28:21;;;;;;;;;;;;;;;17.62;46.07;100813.78;5080989;28;1129;-47
2023/08/10 02:30:46;;;;;;;;;;;;;;;17.44;45.68;100812.44;5098938;28;1004;-48
2023/08/10 02:33:12;;;;;;;;;;;;;;;17.45;45.03;100816.84;5080621;28;1023;-49
2023/08/10 02:35:38;;;;;;;;;;;;;;;17.26;44.96;100805.66;5098900;28;1091;-50
2023/08/10 02:38:03;;;;;;;;;;;;;;;17.30;44.72;100808.63;5080723;28;1149;-50
2023/08/10 02:40:29;;;;;;;;;;;;;;;17.76;45.14;100808.50;5098897;28;1905;-50
2023/08/10 02:42:54;;;;;;;;;;;;;;;17.99;46.32;100810.94;5098630;28;1076;-51
2023/08/10 02:45:20;;;;;;;;;;;;;;;17.58;45.98;100806.38;5098830;28;1056;-51
2023/08/10 02:47:45;;;;;;;;;;;;;;;17.55;45.42;100815.19;5080397;28;972;-49
2023/08/10 02:50:14;;;;;;;;;;;;;;;17.35;45.22;100814.13;5076981;28;1341;-48
2023/08/10 02:52:40;;;;;;;;;;;;;;;17.28;45.01;100808.13;5077997;28;1280;-51
2023/08/10 02:55:06;;;;;;;;;;;;;;;17.48;45.21;100807.22;5078114;28;1010;-49
2023/08/10 02:57:32;;;;;;;;;;;;;;;17.77;46.21;100804.66;5078439;28;1216;-52
2023/08/10 02:59:58;;;;;;;;;;;;;;;17.51;45.99;100806.66;5076249;28;1909;-51
2023/08/10 03:02:24;;;;;;;;;;;;;;;17.36;45.56;100802.06;5077056;28;1249;-49
2023/08/10 03:04:50;;;;;;;;;;;;;;;17.37;44.87;100806.44;5076544;28;1142;-51
2023/08/10 03:07:17;;;;;;;;;;;;;;;17.97;45.77;100802.16;5078141;28;1101;-51
2023/08/10 03:09:43;;;;;;;;;;;;;;;17.91;46.44;100798.59;5077862;28;1055;-50
2023/08/10 03:12:12;;;;;;;;;;;;;;;17.60;46.28;100793.19;5076612;28;1345;-51
2023/08/10 03:14:38;;;;;;;;;;;;;;;17.47;45.57;100789.09;5077806;28;1506;-51
2023/08/10 03:17:04;;;;;;;;;;;;;;;17.44;45.19;100792.41;5076982;28;1173;-49
2023/08/10 03:19:29;;;;;;;;;;;;;;;17.41;44.57;100785.53;5077765;28;1971;-44
2023/08/10 03:21:55;;;;;;;;;;;;;;;17.30;44.43;100783.91;5076718;28;1089;-49
2023/08/10 03:24:22;;;;;;;;;;;;;;;18.11;45.50;100783.91;5073265;28;1256;-44
2023/08/10 03:26:47;;;;;;;;;;;;;;;17.83;46.32;100777.16;5076881;28;1385;-45
2023/08/10 03:29:14;;;;;;;;;;;;;;;17.51;46.09;100786.63;5076303;28;1284;-46
2023/08/10 03:31:40;;;;;;;;;;;;;;;17.44;45.39;100790.47;5076292;28;1205;-42
2023/08/10 03:34:09;;;;;;;;;;;;;;;17.35;45.10;100786.66;5075689;28;1176;-46
2023/08/10 03:36:35;;;;;;;;;;;;;;;18.24;45.52;100797.06;5077235;28;1201;-49
2023/08/10 03:39:00;;;;;;;;;;;;;;;17.64;46.14;100799.75;5076949;28;1073;-50
2023/08/10 03:41:26;;;;;;;;;;;;;;;17.54;45.48;100792.34;5075753;28;1910;-46
2023/08/10 03:43:51;;;;;;;;;;;;;;;17.32;45.45;100791.88;5073912;28;1215;-47
2023/08/10 03:46:17;;;;;;;;;;;;;;;17.35;44.92;100794.91;5076355;28;1183;-47
2023/08/10 03:48:42;;;;;;;;;;;;;;;17.24;44.60;100798.78;5075894;28;1134;-48
2023/08/10 03:51:08;;;;;;;;;;;;;;;18.12;45.82;100793.81;5091639;28;1051;-43
2023/08/10 03:53:34;;;;;;;;;;;;;;;17.65;46.00;100795.91;5097144;28;1027;-46
2023/08/10 03:55:59;;;;;;;;;;;;;;;17.48;45.67;100795.44;5097097;28;931;-48
2023/08/10 03:58:25;;;;;;;;;;;;;;;17.36;45.91;100799.31;5078099;28;2511;-51
2023/08/10 04:00:51;;;;;;;;;;;;;;;17.44;45.35;100804.22;5097063;28;1976;-51
2023/08/10 04:03:17;;;;;;;;;;;;;;;18.20;46.45;100801.47;5078623;28;1251;-55
2023/08/10 04:05:43;;;;;;;;;;;;;;;17.72;46.55;100793.69;5078795;28;1069;-52
2023/08/10 04:08:09;;;;;;;;;;;;;;;17.56;45.82;100786.59;5065402;28;1335;-54
2023/08/10 04:10:34;;;;;;;;;;;;;;;17.47;45.44;100786.34;5094252;28;1015;-51
2023/08/10 04:13:00;;;;;;;;;;;;;;;17.43;45.06;100786.09;5094661;28;1069;-51
2023/08/10 04:15:27;;;;;;;;;;;;;;;17.32;44.99;100789.13;5078453;28;1295;-49
2023/08/10 04:17:53;;;;;;;;;;;;;;;17.30;44.53;100783.91;5096342;28;994;-49
2023/08/10 04:20:18;;;;;;;;;;;;;;;17.35;45.13;100792.16;5078190;28;1974;-43
2023/08/10 04:22:44;;;;;;;;;;;;;;;17.87;46.12;100792.00;5096376;28;1099;-50
2023/08/10 04:25:09;;;;;;;;;;;;;;;17.53;46.13;100779.72;5096444;28;1078;-44
2023/08/10 04:27:35;;;;;;;;;;;;;;;17.42;45.59;100778.94;5095887;28;1910;-45
2023/08/10 04:30:03;;;;;;;;;;;;;;;17.40;45.19;100789.41;5096756;28;1110;-48
2023/08/10 04:32:28;;;;;;;;;;;;;;;17.40;44.88;100788.56;5095569;28;1114;-52
2023/08/10 04:34:54;;;;;;;;;;;;;;;17.28;44.65;100775.13;5084886;28;1196;-51
2023/08/10 04:37:19;;;;;;;;;;;;;;;17.29;44.66;100779.50;5094005;28;1043;-49
2023/08/10 04:39:45;;;;;;;;;;;;;;;17.88;45.88;100769.69;5095655;28;1918;-49
2023/08/10 04:42:11;;;;;;;;;;;;;;;17.59;45.95;100770.34;5077934;28;1098;-48
2023/08/10 04:44:36;;;;;;;;;;;;;;;17.42;45.70;100769.88;5087388;28;1123;-48
2023/08/10 04:47:02;;;;;;;;;;;;;;;18.42;44.74;100768.00;5091353;28;1051;-50
2023/08/10 04:49:28;;;;;;;;;;;;;;;18.47;44.56;100758.91;5087551;28;1183;-51
2023/08/10 04:51:54;;;;;;;;;;;;;;;18.14;45.38;100755.81;5092904;28;1403;-53
2023/08/10 04:54:20;;;;;;;;;;;;;;;18.00;46.22;100750.13;5096087;28;1260;-51
2023/08/10 04:56:46;;;;;;;;;;;;;;;17.80;46.56;100740.03;5090649;28;1051;-50
2023/08/10 04:59:11;;;;;;;;;;;;;;;17.72;47.16;100749.66;5089661;28;2057;-51
2023/08/10 05:01:38;;;;;;;;;;;;;;;17.65;47.46;100751.91;5082671;28;1968;-53
2023/08/10 05:04:04;;;;;;;;;;;;;;;17.61;47.89;100751.66;5093883;28;2232;-47
2023/08/10 05:06:30;;;;;;;;;;;;;;;17.50;47.91;100755.56;5092004;28;1031;-54
2023/08/10 05:08:56;;;;;;;;;;;;;;;17.43;48.27;100752.25;5078279;28;1098;-51
2023/08/10 05:11:23;;;;;;;;;;;;;;;17.51;48.42;100750.88;5095565;28;1102;-54
2023/08/10 05:13:48;;;;;;;;;;;;;;;17.35;48.91;100741.84;5096346;28;1046;-52
2023/08/10 05:16:15;;;;;;;;;;;;;;;17.33;49.20;100735.81;5095866;28;1086;-52
2023/08/10 05:18:40;;;;;;;;;;;;;;;17.28;49.18;100737.47;5095307;28;1355;-50
2023/08/10 05:21:06;;;;;;;;;;;;;;;17.21;49.31;100734.19;5084366;28;1906;-52
2023/08/10 05:23:31;;;;;;;;;;;;;;;17.21;49.59;100738.88;5094154;28;1090;-50
2023/08/10 05:25:57;;;;;;;;;;;;;;;17.20;49.72;100737.22;5084777;28;1010;-52
2023/08/10 05:28:22;;;;;;;;;;;;;;;17.08;49.94;100737.50;5093350;28;1153;-53
2023/08/10 05:30:48;;;;;;;;;;;;;;;17.07;50.18;100742.19;5096311;28;1045;-56
2023/08/10 05:33:14;;;;;;;;;;;;;;;17.02;50.32;100738.63;5082918;28;1158;-56
2023/08/10 05:35:40;;;;;;;;;;;;;;;17.06;50.24;100740.53;5087438;28;1159;-54
2023/08/10 05:38:06;;;;;;;;;;;;;;;17.00;50.68;100730.66;5076020;28;1050;-53
2023/08/10 05:40:32;;;;;;;;;;;;;;;16.96;50.89;100746.06;5084686;28;1976;-55
2023/08/10 05:42:57;;;;;;;;;;;;;;;16.96;50.74;100734.22;5080682;28;1165;-56
2023/08/10 05:45:23;;;;;;;;;;;;;;;16.87;51.00;100734.78;5075861;28;1031;-55
2023/08/10 05:47:49;;;;;;;;;;;;;;;16.89;51.38;100729.84;5088903;28;1143;-56
2023/08/10 05:50:15;;;;;;;;;;;;;;;16.86;51.46;100732.31;5075334;28;1201;-56
2023/08/10 05:52:42;;;;;;;;;;;;;;;16.82;51.55;100742.22;5097207;28;1047;-56
2023/08/10 05:55:08;;;;;;;;;;;;;;;16.80;51.80;100738.91;5093695;28;1293;-52
2023/08/10 05:57:34;;;;;;;;;;;;;;;16.73;51.81;100734.53;5091334;28;1023;-56
2023/08/10 06:00:00;;;;;;;;;;;;;;;16.74;51.73;100724.34;5085260;28;2227;-56
2023/08/10 06:02:26;;;;;;;;;;;;;;;16.81;51.87;100733.13;5097408;28;1185;-51
2023/08/10 06:04:52;;;;;;;;;;;;;;;16.72;52.06;100757.59;5097294;28;1261;-47
2023/08/10 06:07:18;;;;;;;;;;;;;;;16.70;52.22;100759.75;5079763;28;999;-49
2023/08/10 06:09:43;;;;;;;;;;;;;;;16.65;52.16;100757.03;5094717;28;1178;-51
2023/08/10 06:12:09;;;;;;;;;;;;;;;16.66;52.36;100755.94;5090077;28;1146;-51
2023/08/10 06:14:34;;;;;;;;;;;;;;;16.63;52.44;100753.72;5094556;28;1126;-50
2023/08/10 06:17:00;;;;;;;;;;;;;;;16.61;52.26;100750.44;5099477;28;1387;-51
2023/08/10 06:19:25;;;;;;;;;;;;;;;16.67;52.26;100741.09;5099335;28;1138;-50
2023/08/10 06:21:51;;;;;;;;;;;;;;;16.65;52.38;100747.97;5095952;28;1982;-50
2023/08/10 06:24:17;;;;;;;;;;;;;;;16.57;52.43;100746.59;5081364;28;1308;-49
2023/08/10 06:26:43;;;;;;;;;;;;;;;16.50;52.62;100737.81;5093468;28;1142;-47
2023/08/10 06:29:08;;;;;;;;;;;;;;;16.50;52.59;100748.78;5098786;28;1141;-50
2023/08/10 06:31:35;;;;;;;;;;;;;;;16.58;52.29;100751.00;5099332;28;1350;-47
2023/08/10 06:34:02;;;;;;;;;;;;;;;16.50;52.56;100762.53;5098499;28;1085;-49
2023/08/10 06:36:28;;;;;;;;;;;;;;;16.46;52.91;100769.66;5096085;28;1090;-48
2023/08/10 06:38:53;;;;;;;;;;;;;;;16.45;53.06;100762.50;5099095;28;1288;-49
2023/08/10 06:41:19;;;;;;;;;;;;;;;16.46;52.77;100761.41;5098288;28;1914;-51
2023/08/10 06:43:45;;;;;;;;;;;;;;;16.43;53.02;100769.09;5098837;28;1291;-47
2023/08/10 06:46:10;;;;;;;;;;;;;;;16.42;52.89;100772.09;5099154;28;1070;-48
2023/08/10 06:48:36;;;;;;;;;;;;;;;16.43;52.94;100771.81;5089982;28;1144;-46
2023/08/10 06:51:01;;;;;;;;;;;;;;;16.41;52.94;100774.03;5097815;28;1430;-47
2023/08/10 06:53:28;;;;;;;;;;;;;;;16.34;53.33;100768.00;5099092;28;1371;-48
2023/08/10 06:55:54;;;;;;;;;;;;;;;16.39;53.15;100767.97;5098076;28;1404;-50
2023/08/10 06:58:20;;;;;;;;;;;;;;;16.38;53.26;100766.34;5088927;28;1126;-49
2023/08/10 07:00:45;;;;;;;;;;;;;;;16.34;53.12;100758.91;5096559;28;2013;-51
2023/08/10 07:03:11;;;;;;;;;;;;;;;16.35;53.43;100763.31;5080124;28;1228;-48
2023/08/10 07:05:38;;;;;;;;;;;;;;;16.35;53.40;100777.03;5087774;28;1073;-47
2023/08/10 07:08:03;;;;;;;;;;;;;;;16.64;53.47;100766.38;5094632;28;1046;-50
2023/08/10 07:10:29;;;;;;;;;;;;;;;17.39;52.51;100768.50;5088532;28;1134;-47
2023/08/10 07:12:54;;;;;;;;;;;;;;;16.90;53.50;100780.09;5079952;28;1181;-51
2023/08/10 07:15:20;;;;;;;;;;;;;;;16.77;53.54;100765.81;5089546;28;1323;-48
2023/08/10 07:17:46;;;;;;;;;;;;;;;16.67;53.81;100771.28;5097532;28;1111;-49
2023/08/10 07:20:12;;;;;;;;;;;;;;;16.73;53.38;100772.13;5083648;28;1901;-51
2023/08/10 07:22:38;;;;;;;;;;;;;;;16.67;53.66;100782.28;5097145;28;1180;-51
2023/08/10 07:25:05;;;;;;;;;;;;;;;16.66;53.53;100780.66;5083547;28;1043;-50
2023/08/10 07:27:34;;;;;;;;;;;;;;;16.60;53.40;100781.72;5097401;28;1133;-50
2023/08/10 07:29:59;;;;;;;;;;;;;;;16.56;53.79;100780.63;5097968;28;1038;-50
2023/08/10 07:32:26;;;;;;;;;;;;;;;16.56;53.41;100775.13;5085741;28;1141;-48
2023/08/10 07:34:51;;;;;;;;;;;;;;;16.47;53.86;100783.09;5077862;28;1115;-48
2023/08/10 07:37:17;;;;;;;;;;;;;;;16.53;53.71;100786.69;5088811;28;883;-50
2023/08/10 07:39:43;;;;;;;;;;;;;;;16.52;53.57;100783.13;5096861;28;1973;-50
2023/08/10 07:42:08;;;;;;;;;;;;;;;16.52;53.42;100785.00;5097409;28;1059;-48
2023/08/10 07:44:34;;;;;;;;;;;;;;;16.48;53.76;100784.75;5097523;28;1166;-53
2023/08/10 07:46:59;;;;;;;;;;;;;;;16.46;53.63;100775.94;5097305;28;1240;-51
2023/08/10 07:49:25;;;;;;;;;;;;;;;16.44;53.73;100767.19;5089618;28;1162;-51
2023/08/10 07:51:50;;;;;;;;;;;;;;;16.43;53.52;100766.34;5096686;28;1177;-49
2023/08/10 07:54:16;;;;;;;;;;;;;;;16.47;53.76;100760.31;5096442;28;1422;-47
2023/08/10 07:56:42;;;;;;;;;;;;;;;16.41;53.87;100754.81;5096655;28;1146;-45
2023/08/10 07:59:07;;;;;;;;;;;;;;;16.42;54.40;100763.88;5096882;28;1097;-46
2023/08/10 08:01:33;;;;;;;;;;;;;;;16.44;54.44;100767.19;5084221;28;1913;-47
2023/08/10 08:03:58;;;;;;;;;;;;;;;16.46;53.94;100770.47;5076880;28;1046;-47
2023/08/10 08:06:24;;;;;;;;;;;;;;;16.42;54.03;100775.69;5090338;28;1308;-46
2023/08/10 08:08:49;;;;;;;;;;;;;;;16.42;54.30;100774.84;5091621;28;1355;-50
2023/08/10 08:11:15;;;;;;;;;;;;;;;16.39;54.13;100778.16;5097046;28;1304;-51
2023/08/10 08:13:41;;;;;;;;;;;;;;;16.44;54.14;100775.41;5085543;28;1335;-49
2023/08/10 08:16:06;;;;;;;;;;;;;;;16.37;54.11;100781.16;5097067;28;1299;-48
2023/08/10 08:18:44;;;;;;;;;;;;;;;16.50;53.81;100779.00;5097205;28;1300;-49
2023/08/10 08:21:10;;;;;;;;;;;;;;;16.34;54.02;100784.47;5096532;28;1905;-52
2023/08/10 08:23:35;;;;;;;;;;;;;;;16.33;54.00;100780.06;5084557;28;1066;-52
2023/08/10 08:26:01;;;;;;;;;;;;;;;16.34;54.27;100778.97;5089373;28;1111;-50
2023/08/10 08:28:26;;;;;;;;;;;;;;;16.34;54.00;100778.97;5089043;28;1090;-51
2023/08/10 08:30:52;;;;;;;;;;;;;;;16.42;54.72;100780.34;5077432;28;1153;-51
2023/08/10 08:33:18;;;;;;;;;;;;;;;16.34;54.57;100780.88;5087798;28;1452;-49
2023/08/10 08:35:43;;;;;;;;;;;;;;;16.35;54.54;100786.09;5092794;28;1093;-53
2023/08/10 08:38:09;;;;;;;;;;;;;;;16.39;54.44;100781.69;5095747;28;1094;-53
2023/08/10 08:40:35;;;;;;;;;;;;;;;17.19;54.13;100793.28;5096675;28;1976;-54
2023/08/10 08:43:00;;;;;;;;;;;;;;;17.37;54.30;100780.88;5078528;28;1150;-52
2023/08/10 08:45:26;;;;;;;;;;;;;;;16.90;55.05;100775.47;5094675;28;1361;-54
2023/08/10 08:47:52;;;;;;;;;;;;;;;16.74;55.61;100771.84;5078887;28;1099;-52
2023/08/10 08:50:17;;;;;;;;;;;;;;;16.77;54.77;100764.97;5078249;28;1482;-54
2023/08/10 08:52:43;;;;;;;;;;;;;;;16.74;54.82;100779.28;5096319;28;1284;-53
2023/08/10 08:55:11;;;;;;;;;;;;;;;16.62;54.78;100776.81;5096220;28;1378;-53
2023/08/10 08:57:37;;;;;;;;;;;;;;;16.57;54.88;100793.25;5096423;28;1327;-53
2023/08/10 09:00:03;;;;;;;;;;;;;;;16.59;54.58;100783.66;5096104;28;1974;-53
2023/08/10 09:02:28;;;;;;;;;;;;;;;16.51;54.76;100786.94;5095985;28;1053;-53
2023/08/10 09:04:59;;;;;;;;;;;;;;;16.52;54.75;100785.00;5096679;28;1335;-52
2023/08/10 09:07:26;;;;;;;;;;;;;;;16.52;54.66;100774.88;5096576;28;1293;-52
2023/08/10 09:09:51;;;;;;;;;;;;;;;16.52;54.80;100779.53;5074313;28;1320;-53
2023/08/10 09:12:29;;;;;;;;;;;;;;;16.51;54.72;100780.63;5078256;28;1395;-54
2023/08/10 09:15:08;;;;;;;;;;;;;;;16.49;54.72;100786.38;5096035;28;1062;-52
2023/08/10 09:17:35;;;;;;;;;;;;;;;16.46;54.58;100786.13;5077600;28;1320;-49
2023/08/10 09:20:01;;;;;;;;;;;;;;;16.45;54.51;100790.75;5095905;28;2016;-54
2023/08/10 09:22:27;;;;;;;;;;;;;;;16.45;54.59;100806.41;5096557;28;1276;-51
2023/08/10 09:24:53;;;;;;;;;;;;;;;16.43;54.79;100793.78;5094034;28;1197;-51
2023/08/10 09:27:18;;;;;;;;;;;;;;;16.45;54.70;100800.94;5096942;28;1308;-51
2023/08/10 09:29:45;;;;;;;;;;;;;;;16.50;54.31;100799.03;5100267;28;1204;-56
2023/08/10 09:32:17;;;;;;;;;;;;;;;16.42;54.86;100802.28;5098968;28;1365;-53
2023/08/10 09:34:43;;;;;;;;;;;;;;;16.51;54.58;100784.19;5099805;28;1359;-52
2023/08/10 09:37:11;;;;;;;;;;;;;;;16.46;54.83;100780.63;5078004;28;1292;-49
2023/08/10 09:39:37;;;;;;;;;;;;;;;16.28;55.23;100777.28;5071053;28;1394;-55
2023/08/10 09:42:02;;;;;;;;;;;;;;;16.34;54.91;100778.13;5099838;28;1906;-54
2023/08/10 09:44:41;;;;;;;;;;;;;;;16.48;54.68;100786.66;5099045;28;1484;-54
2023/08/10 09:47:06;;;;;;;;;;;;;;;16.51;54.58;100794.34;5097691;28;1323;-50
2023/08/10 09:49:31;;;;;;;;;;;;;;;16.46;54.50;100775.94;5091915;28;1404;-47
2023/08/10 09:51:58;;;;;;;;;;;;;;;16.42;54.66;100770.22;5093028;28;1173;-54
2023/08/10 09:54:24;;;;;;;;;;;;;;;16.39;54.68;100772.66;5095101;28;1125;-50
2023/08/10 09:56:50;;;;;;;;;;;;;;;16.42;54.53;100766.63;5080744;28;1043;-55
2023/08/10 09:59:16;;;;;;;;;;;;;;;16.39;54.79;100764.44;5093469;28;995;-49
2023/08/10 10:01:41;;;;;;;;;;;;;;;16.39;54.83;100769.91;5080720;28;1902;-50
2023/08/10 10:04:07;;;;;;;;;;;;;;;16.37;54.79;100772.94;5079047;28;1343;-46
2023/08/10 10:06:32;;;;;;;;;;;;;;;16.39;54.62;100776.22;5088420;28;1119;-51
2023/08/10 10:08:58;;;;;;;;;;;;;;;16.39;54.74;100757.00;5099010;28;1098;-49
2023/08/10 10:11:23;;;;;;;;;;;;;;;17.57;54.32;100755.22;5081356;28;1099;-52
2023/08/10 10:13:49;;;;;;;;;;;;;;;17.04;55.48;100759.25;5073552;28;1125;-54
2023/08/10 10:16:14;;;;;;;;;;;;;;;16.83;55.62;100755.66;5075515;28;1050;-48
2023/08/10 10:18:40;;;;;;;;;;;;;;;16.75;55.68;100739.72;5091783;28;1038;-54
2023/08/10 10:21:06;;;;;;;;;;;;;;;16.74;55.32;100758.13;5074098;28;2051;-53
2023/08/10 10:23:31;;;;;;;;;;;;;;;16.66;55.41;100764.19;5086075;28;1122;-56
2023/08/10 10:26:00;;;;;;;;;;;;;;;16.67;55.13;100768.56;5098517;28;1007;-54
2023/08/10 10:28:27;;;;;;;;;;;;;;;16.66;55.28;100774.31;5091611;28;1201;-51
2023/08/10 10:30:54;;;;;;;;;;;;;;;16.62;54.91;100754.84;5092998;28;1193;-50
2023/08/10 10:33:19;;;;;;;;;;;;;;;16.63;54.92;100770.19;5098687;28;1268;-50
2023/08/10 10:35:46;;;;;;;;;;;;;;;16.57;55.04;100754.84;5099085;28;1307;-51
2023/08/10 10:38:11;;;;;;;;;;;;;;;16.51;55.03;100750.41;5079504;28;1395;-53
2023/08/10 10:40:37;;;;;;;;;;;;;;;16.60;54.90;100759.78;5080401;28;1905;-49
2023/08/10 10:43:11;;;;;;;;;;;;;;;16.54;54.56;100763.63;5080417;28;1375;-54
2023/08/10 10:45:40;;;;;;;;;;;;;;;16.52;54.85;100752.06;5098298;28;1324;-56
2023/08/10 10:48:06;;;;;;;;;;;;;;;16.50;54.65;100744.13;5098331;28;1300;-54
2023/08/10 10:50:31;;;;;;;;;;;;;;;16.50;54.50;100748.78;5096372;28;1003;-57
2023/08/10 10:52:57;;;;;;;;;;;;;;;16.41;54.67;100743.84;5098229;28;1041;-52
2023/08/10 10:55:23;;;;;;;;;;;;;;;16.49;54.67;100747.13;5098515;28;1260;-52
2023/08/10 10:57:49;;;;;;;;;;;;;;;16.47;54.49;100747.41;5098281;28;1110;-53
2023/08/10 11:00:16;;;;;;;;;;;;;;;16.41;54.58;100727.38;5078596;28;1898;-57
2023/08/10 11:02:42;;;;;;;;;;;;;;;16.49;54.38;100730.66;5091128;28;1139;-54
2023/08/10 11:05:13;;;;;;;;;;;;;;;16.46;54.37;100742.22;5084665;28;1102;-54
2023/08/10 11:07:48;;;;;;;;;;;;;;;16.42;54.59;100736.44;5097023;28;1279;-56
2023/08/10 11:10:14;;;;;;;;;;;;;;;16.46;54.65;100747.69;5098336;28;1350;-47
2023/08/10 11:12:40;;;;;;;;;;;;;;;16.49;54.60;100747.13;5080316;28;1375;-49
2023/08/10 11:15:06;;;;;;;;;;;;;;;16.40;54.84;100744.94;5097651;28;1124;-51
2023/08/10 11:17:32;;;;;;;;;;;;;;;16.50;54.78;100748.78;5098185;28;1121;-46
2023/08/10 11:19:57;;;;;;;;;;;;;;;16.41;55.03;100746.59;5070936;28;1898;-50
2023/08/10 11:22:23;;;;;;;;;;;;;;;16.44;54.80;100758.94;5094107;28;1174;-52
2023/08/10 11:24:48;;;;;;;;;;;;;;;16.41;54.85;100759.47;5070644;28;1138;-48
2023/08/10 11:27:14;;;;;;;;;;;;;;;16.53;55.04;100756.47;5082112;28;1106;-45
2023/08/10 11:29:39;;;;;;;;;;;;;;;16.46;54.85;100753.19;5096090;28;1363;-51
2023/08/10 11:32:05;;;;;;;;;;;;;;;16.42;55.00;100770.22;5085697;28;1178;-54
2023/08/10 11:34:33;;;;;;;;;;;;;;;16.38;54.77;100752.63;5097463;28;1429;-55
2023/08/10 11:36:58;;;;;;;;;;;;;;;16.41;54.99;100745.75;5097699;28;1181;-50
2023/08/10 11:39:24;;;;;;;;;;;;;;;16.38;54.69;100741.66;5084001;28;1038;-48
2023/08/10 11:41:50;;;;;;;;;;;;;;;16.43;54.57;100732.59;5090526;28;1984;-51
2023/08/10 11:44:26;;;;;;;;;;;;;;;16.41;54.63;100737.50;5077093;28;1050;-51
2023/08/10 11:46:52;;;;;;;;;;;;;;;16.82;54.94;100740.28;5093829;28;1205;-50
2023/08/10 11:49:17;;;;;;;;;;;;;;;17.53;54.97;100740.41;5097187;28;1058;-49
2023/08/10 11:51:43;;;;;;;;;;;;;;;17.04;56.10;100729.03;5095580;28;1318;-48
2023/08/10 11:54:09;;;;;;;;;;;;;;;16.91;55.87;100737.81;5094454;28;1120;-52
2023/08/10 11:56:42;;;;;;;;;;;;;;;16.75;56.13;100732.31;5083873;28;1039;-51
2023/08/10 11:59:11;;;;;;;;;;;;;;;16.64;56.21;100738.09;5086553;28;1010;-50
2023/08/10 12:01:53;;;;;;;;;;;;;;;16.74;55.50;100727.09;5080877;28;1979;-53
2023/08/10 12:04:19;;;;;;;;;;;;;;;16.54;56.09;100723.25;5095909;28;1176;-50
2023/08/10 12:06:44;;;;;;;;;;;;;;;16.53;56.00;100712.56;5078663;28;1505;-51
2023/08/10 12:09:10;;;;;;;;;;;;;;;16.53;55.73;100709.81;5079102;28;1141;-46
2023/08/10 12:11:36;;;;;;;;;;;;;;;16.52;55.79;100713.66;5097092;28;1366;-50
2023/08/10 12:14:01;;;;;;;;;;;;;;;16.52;55.74;100709.00;5096481;28;1374;-53
2023/08/10 12:16:27;;;;;;;;;;;;;;;16.49;55.63;100719.69;5089772;28;968;-50
2023/08/10 12:18:52;;;;;;;;;;;;;;;16.51;55.87;100706.50;5076873;28;1087;-53
2023/08/10 12:21:18;;;;;;;;;;;;;;;16.47;55.64;100710.94;5089696;28;1917;-52
2023/08/10 12:23:44;;;;;;;;;;;;;;;16.48;55.74;100705.16;5082895;28;1062;-51
2023/08/10 12:26:11;;;;;;;;;;;;;;;16.50;55.83;100716.66;5078886;28;1395;-50
2023/08/10 12:28:37;;;;;;;;;;;;;;;16.43;55.74;100705.97;5094890;28;1395;-47
2023/08/10 12:31:05;;;;;;;;;;;;;;;16.46;55.58;100704.59;5097035;28;1138;-51
2023/08/10 12:33:31;;;;;;;;;;;;;;;16.49;55.51;100703.22;5096240;28;1043;-49
2023/08/10 12:35:57;;;;;;;;;;;;;;;16.42;55.65;100707.06;5086018;28;1097;-47
2023/08/10 12:38:23;;;;;;;;;;;;;;;16.42;55.45;100700.75;5079092;28;1085;-45
2023/08/10 12:40:48;;;;;;;;;;;;;;;16.42;55.34;100709.81;5068676;28;1968;-54
2023/08/10 12:43:14;;;;;;;;;;;;;;;16.45;55.12;100707.63;5086524;28;1034;-51